Terminal Aerodrome Forecast
Issued by NWS Flagstaff, AZ

Current Version | Previous Version | Text Only | Print | Product List | Glossary On
Versions: 1 2 3 4 5 6 7 8 9 10 11 12 13 14 15 16 17 18 19 20 21 22
952
FTUS45 KFGZ 271526 AAB
TAFFLG
TAF AMD
KFLG 271526Z 2715/2812 VRB06KT P6SM -SHRA SCT040 BKN070
      TEMPO 2715/2717 2SM RA BKN040
     FM271800 19006KT P6SM BKN050 BKN100
      TEMPO 2720/2724 VRB10G20KT 4SM TSRA BKN040CB
     FM280200 VRB05KT P6SM SCT060=

USA.gov is the U.S. government's official web portal to all federal, state and local government web resources and services.